Time,TemperatureF,DewpointF,PressureIn,WindDirection,WindDirectionDegrees,WindSpeedMPH,WindSpeedGustMPH,Humidity,HourlyPrecipIn,Conditions,Clouds,dailyrainin,SoftwareType,DateUTC
2013-12-11 00:01:00,28.7,20.8,30.37,South,169,0.0,9.0,72,0.02,,,0.02,Weather View 32 v70,2013-12-11 06:01:00,
2013-12-11 00:06:00,28.6,21.0,30.37,SSE,166,3.0,9.0,73,0.00,,,0.00,Weather View 32 v70,2013-12-11 06:06:00,
2013-12-11 00:11:00,28.5,20.9,30.37,South,169,0.0,9.0,73,0.00,,,0.00,Weather View 32 v70,2013-12-11 06:11:00,
2013-12-11 00:16:00,28.4,21.2,30.37,South,174,4.0,9.0,74,0.00,,,0.00,Weather View 32 v70,2013-12-11 06:16:00,
2013-12-11 00:21:00,28.4,21.2,30.37,South,177,0.0,9.0,74,0.00,,,0.00,Weather View 32 v70,2013-12-11 06:21:00,
2013-12-11 00:26:00,28.3,21.1,30.37,South,178,3.0,9.0,74,0.00,,,0.00,Weather View 32 v70,2013-12-11 06:26:00,
2013-12-11 00:31:00,28.3,21.4,30.37,South,176,0.0,9.0,75,0.00,,,0.00,Weather View 32 v70,2013-12-11 06:31:00,
2013-12-11 00:36:00,28.4,21.5,30.37,South,174,0.0,9.0,75,0.00,,,0.00,Weather View 32 v70,2013-12-11 06:36:00,
2013-12-11 00:41:00,28.3,21.7,30.37,South,174,0.0,9.0,76,0.00,,,0.00,Weather View 32 v70,2013-12-11 06:41:00,
2013-12-11 00:46:00,28.3,21.7,30.37,South,173,0.0,9.0,76,0.00,,,0.00,Weather View 32 v70,2013-12-11 06:46:00,
2013-12-11 00:51:00,28.2,21.6,30.37,South,170,0.0,9.0,76,0.00,,,0.00,Weather View 32 v70,2013-12-11 06:51:00,
2013-12-11 00:56:00,28.2,21.9,30.37,South,170,0.0,9.0,77,0.00,,,0.00,Weather View 32 v70,2013-12-11 06:56:00,
2013-12-11 01:01:00,28.1,21.8,30.37,South,170,0.0,9.0,77,-0.02,,,0.00,Weather View 32 v70,2013-12-11 07:01:00,
2013-12-11 01:06:00,28.1,21.8,30.37,South,173,2.0,9.0,77,0.00,,,0.00,Weather View 32 v70,2013-12-11 07:06:00,
2013-12-11 01:11:00,28.1,21.8,30.38,South,174,0.0,9.0,77,0.00,,,0.00,Weather View 32 v70,2013-12-11 07:11:00,
2013-12-11 01:16:00,28.0,21.7,30.38,South,174,0.0,9.0,77,0.00,,,0.00,Weather View 32 v70,2013-12-11 07:16:00,
2013-12-11 01:21:00,28.0,22.0,30.38,South,174,0.0,8.0,78,0.00,,,0.00,Weather View 32 v70,2013-12-11 07:21:00,
2013-12-11 01:26:00,28.0,22.0,30.38,South,174,0.0,8.0,78,0.00,,,0.00,Weather View 32 v70,2013-12-11 07:26:00,
2013-12-11 01:31:00,28.0,22.0,30.38,South,174,0.0,6.0,78,0.00,,,0.00,Weather View 32 v70,2013-12-11 07:31:00,
2013-12-11 01:36:00,28.1,22.4,30.39,South,175,0.0,9.0,79,0.00,,,0.00,Weather View 32 v70,2013-12-11 07:36:00,
2013-12-11 01:41:00,28.2,22.5,30.38,South,169,0.0,9.0,79,0.00,,,0.00,Weather View 32 v70,2013-12-11 07:41:00,
2013-12-11 01:46:00,28.3,22.6,30.38,South,172,7.0,9.0,79,0.00,,,0.00,Weather View 32 v70,2013-12-11 07:46:00,
2013-12-11 01:51:00,28.5,22.8,30.39,South,172,0.0,9.0,79,0.00,,,0.00,Weather View 32 v70,2013-12-11 07:51:00,
2013-12-11 01:56:00,28.5,22.8,30.38,SSE,158,7.0,9.0,79,0.00,,,0.00,Weather View 32 v70,2013-12-11 07:56:00,
2013-12-11 02:01:00,28.5,22.8,30.38,SSE,164,6.0,9.0,79,0.00,,,0.00,Weather View 32 v70,2013-12-11 08:01:00,
2013-12-11 02:06:00,28.3,22.6,30.39,SSE,165,0.0,9.0,79,0.00,,,0.00,Weather View 32 v70,2013-12-11 08:06:00,
2013-12-11 02:11:00,28.2,22.5,30.39,SSE,164,4.0,9.0,79,0.00,,,0.00,Weather View 32 v70,2013-12-11 08:11:00,
2013-12-11 02:16:00,28.1,22.4,30.40,SSE,163,0.0,9.0,79,0.00,,,0.00,Weather View 32 v70,2013-12-11 08:16:00,
2013-12-11 02:21:00,28.0,22.6,30.39,SSE,164,0.0,9.0,80,0.00,,,0.00,Weather View 32 v70,2013-12-11 08:21:00,
2013-12-11 02:26:00,27.8,22.4,30.40,SSE,163,0.0,9.0,80,0.00,,,0.00,Weather View 32 v70,2013-12-11 08:26:00,
2013-12-11 02:31:00,27.7,22.3,30.40,SSE,163,0.0,9.0,80,0.00,,,0.00,Weather View 32 v70,2013-12-11 08:31:00,
2013-12-11 02:36:00,27.7,22.6,30.40,SSE,164,0.0,8.0,81,0.00,,,0.00,Weather View 32 v70,2013-12-11 08:36:00,
2013-12-11 02:41:00,27.7,22.6,30.41,SSE,164,0.0,8.0,81,0.00,,,0.00,Weather View 32 v70,2013-12-11 08:41:00,
2013-12-11 02:46:00,27.7,22.6,30.42,SSE,163,0.0,8.0,81,0.00,,,0.00,Weather View 32 v70,2013-12-11 08:46:00,
2013-12-11 02:51:00,27.8,22.7,30.42,SSE,164,0.0,8.0,81,0.00,,,0.00,Weather View 32 v70,2013-12-11 08:51:00,
2013-12-11 02:56:00,27.9,22.8,30.41,SSE,164,0.0,8.0,81,0.00,,,0.00,Weather View 32 v70,2013-12-11 08:56:00,
2013-12-11 03:01:00,27.8,22.7,30.42,SSE,164,0.0,8.0,81,0.00,,,0.00,Weather View 32 v70,2013-12-11 09:01:00,
2013-12-11 03:06:00,27.6,22.5,30.43,SSE,163,0.0,6.0,81,0.00,,,0.00,Weather View 32 v70,2013-12-11 09:06:00,
2013-12-11 03:11:00,27.6,22.5,30.44,SSE,164,0.0,5.0,81,0.00,,,0.00,Weather View 32 v70,2013-12-11 09:11:00,
2013-12-11 03:16:00,27.5,22.4,30.44,SSE,164,0.0,5.0,81,0.00,,,0.00,Weather View 32 v70,2013-12-11 09:16:00,
2013-12-11 03:21:00,27.4,22.6,30.44,SSE,164,0.0,5.0,82,0.00,,,0.00,Weather View 32 v70,2013-12-11 09:21:00,
2013-12-11 03:26:00,27.3,22.5,30.44,SSE,164,0.0,5.0,82,0.00,,,0.00,Weather View 32 v70,2013-12-11 09:26:00,
2013-12-11 03:31:00,27.3,22.5,30.44,SSE,163,0.0,4.0,82,0.00,,,0.00,Weather View 32 v70,2013-12-11 09:31:00,
2013-12-11 03:36:00,27.3,22.5,30.44,SSE,163,0.0,4.0,82,0.00,,,0.00,Weather View 32 v70,2013-12-11 09:36:00,
2013-12-11 03:41:00,27.4,22.9,30.44,SSE,164,0.0,4.0,83,0.00,,,0.00,Weather View 32 v70,2013-12-11 09:41:00,
2013-12-11 03:46:00,27.5,23.0,30.44,SSE,164,0.0,4.0,83,0.00,,,0.00,Weather View 32 v70,2013-12-11 09:46:00,
2013-12-11 03:51:00,27.5,23.0,30.44,SSE,163,0.0,4.0,83,0.00,,,0.00,Weather View 32 v70,2013-12-11 09:51:00,
2013-12-11 03:56:00,27.5,23.0,30.43,SSE,164,0.0,0.0,83,0.00,,,0.00,Weather View 32 v70,2013-12-11 09:56:00,
2013-12-11 04:01:00,27.3,22.8,30.44,SSE,163,0.0,0.0,83,0.00,,,0.00,Weather View 32 v70,2013-12-11 10:01:00,
2013-12-11 04:06:00,27.3,22.8,30.44,SSE,164,0.0,0.0,83,0.00,,,0.00,Weather View 32 v70,2013-12-11 10:06:00,
2013-12-11 04:11:00,27.3,23.1,30.43,SSE,163,0.0,0.0,84,0.00,,,0.00,Weather View 32 v70,2013-12-11 10:11:00,
2013-12-11 04:16:00,26.9,22.4,30.43,SSE,163,0.0,5.0,83,0.00,,,0.00,Weather View 32 v70,2013-12-11 10:16:00,
2013-12-11 04:21:00,26.7,22.5,30.43,SSE,163,0.0,5.0,84,0.00,,,0.00,Weather View 32 v70,2013-12-11 10:21:00,
2013-12-11 04:26:00,26.7,22.5,30.43,SSE,163,0.0,5.0,84,0.00,,,0.00,Weather View 32 v70,2013-12-11 10:26:00,
2013-12-11 04:31:00,26.7,22.5,30.43,SSE,164,0.0,5.0,84,0.00,,,0.00,Weather View 32 v70,2013-12-11 10:31:00,
2013-12-11 04:36:00,26.7,22.5,30.43,SSE,163,0.0,5.0,84,0.00,,,0.00,Weather View 32 v70,2013-12-11 10:36:00,
2013-12-11 04:41:00,26.7,22.8,30.44,SSE,163,0.0,5.0,85,0.00,,,0.00,Weather View 32 v70,2013-12-11 10:41:00,
2013-12-11 04:46:00,26.5,22.6,30.45,SSE,163,0.0,5.0,85,0.00,,,0.00,Weather View 32 v70,2013-12-11 10:46:00,
2013-12-11 04:51:00,26.4,22.5,30.44,SSE,163,0.0,5.0,85,0.00,,,0.00,Weather View 32 v70,2013-12-11 10:51:00,
2013-12-11 04:56:00,26.2,22.3,30.45,SSE,163,0.0,5.0,85,0.00,,,0.00,Weather View 32 v70,2013-12-11 10:56:00,
2013-12-11 05:01:00,26.1,22.2,30.45,SSE,163,0.0,5.0,85,0.00,,,0.00,Weather View 32 v70,2013-12-11 11:01:00,
2013-12-11 05:06:00,26.0,22.1,30.45,SSE,164,0.0,5.0,85,0.00,,,0.00,Weather View 32 v70,2013-12-11 11:06:00,
2013-12-11 05:11:00,26.0,22.1,30.45,SSE,164,0.0,5.0,85,0.00,,,0.00,Weather View 32 v70,2013-12-11 11:11:00,
2013-12-11 05:16:00,25.8,21.9,30.45,SSE,164,0.0,3.0,85,0.00,,,0.00,Weather View 32 v70,2013-12-11 11:16:00,
2013-12-11 05:21:00,25.7,22.1,30.45,SSE,164,0.0,3.0,86,0.00,,,0.00,Weather View 32 v70,2013-12-11 11:21:00,
2013-12-11 05:26:00,25.6,22.0,30.45,SSE,163,0.0,0.0,86,0.00,,,0.00,Weather View 32 v70,2013-12-11 11:26:00,
2013-12-11 05:31:00,25.6,22.0,30.45,SSE,163,0.0,0.0,86,0.00,,,0.00,Weather View 32 v70,2013-12-11 11:31:00,
2013-12-11 05:36:00,25.4,21.8,30.46,SSE,164,0.0,0.0,86,0.00,,,0.00,Weather View 32 v70,2013-12-11 11:36:00,
2013-12-11 05:41:00,25.3,21.7,30.46,SSE,163,0.0,0.0,86,0.00,,,0.00,Weather View 32 v70,2013-12-11 11:41:00,
2013-12-11 05:46:00,25.2,21.6,30.46,SSE,164,0.0,0.0,86,0.00,,,0.00,Weather View 32 v70,2013-12-11 11:46:00,
2013-12-11 05:51:00,25.1,21.8,30.47,SSE,163,0.0,0.0,87,0.00,,,0.00,Weather View 32 v70,2013-12-11 11:51:00,
2013-12-11 05:56:00,25.1,21.8,30.47,SSE,164,0.0,0.0,87,0.00,,,0.00,Weather View 32 v70,2013-12-11 11:56:00,
2013-12-11 06:01:00,25.1,21.8,30.47,SSE,164,0.0,0.0,87,0.00,,,0.00,Weather View 32 v70,2013-12-11 12:01:00,
2013-12-11 06:06:00,25.7,22.9,30.48,SSE,164,0.0,0.0,89,0.00,,,0.00,Weather View 32 v70,2013-12-11 12:06:00,
2013-12-11 06:11:00,25.6,22.5,30.48,SSE,164,0.0,0.0,88,0.00,,,0.00,Weather View 32 v70,2013-12-11 12:11:00,
2013-12-11 06:16:00,25.3,22.2,30.48,SSE,164,0.0,0.0,88,0.00,,,0.00,Weather View 32 v70,2013-12-11 12:16:00,
2013-12-11 06:21:00,25.2,22.1,30.49,SSE,164,0.0,0.0,88,0.00,,,0.00,Weather View 32 v70,2013-12-11 12:21:00,
2013-12-11 06:26:00,25.1,22.0,30.49,SSE,164,0.0,0.0,88,0.00,,,0.00,Weather View 32 v70,2013-12-11 12:26:00,
2013-12-11 06:31:00,24.8,21.5,30.49,SSE,163,0.0,0.0,87,0.00,,,0.00,Weather View 32 v70,2013-12-11 12:31:00,
2013-12-11 06:36:00,24.6,21.3,30.49,SSE,164,0.0,0.0,87,0.00,,,0.00,Weather View 32 v70,2013-12-11 12:36:00,
2013-12-11 06:41:00,24.5,21.2,30.50,SSE,163,0.0,0.0,87,0.00,,,0.00,Weather View 32 v70,2013-12-11 12:41:00,
2013-12-11 06:46:00,24.3,21.3,30.50,SSE,163,0.0,0.0,88,0.00,,,0.00,Weather View 32 v70,2013-12-11 12:46:00,
2013-12-11 06:51:00,24.3,21.3,30.50,SSE,164,0.0,0.0,88,0.00,,,0.00,Weather View 32 v70,2013-12-11 12:51:00,
2013-12-11 06:56:00,24.2,21.2,30.51,SSE,164,0.0,0.0,88,0.00,,,0.00,Weather View 32 v70,2013-12-11 12:56:00,
2013-12-11 07:01:00,24.3,21.3,30.51,SSE,163,0.0,0.0,88,0.00,,,0.00,Weather View 32 v70,2013-12-11 13:01:00,
2013-12-11 07:06:00,24.3,21.5,30.51,SSE,163,0.0,0.0,89,0.00,,,0.00,Weather View 32 v70,2013-12-11 13:06:00,
2013-12-11 07:11:00,24.3,21.5,30.52,SSE,164,0.0,0.0,89,0.00,,,0.00,Weather View 32 v70,2013-12-11 13:11:00,
2013-12-11 07:16:00,24.4,21.6,30.52,SSE,163,0.0,0.0,89,0.00,,,0.00,Weather View 32 v70,2013-12-11 13:16:00,
2013-12-11 07:21:00,24.5,21.7,30.52,SSE,163,0.0,0.0,89,0.00,,,0.00,Weather View 32 v70,2013-12-11 13:21:00,
2013-12-11 07:26:00,24.7,21.9,30.52,SSE,164,0.0,0.0,89,0.00,,,0.00,Weather View 32 v70,2013-12-11 13:26:00,
2013-12-11 07:31:00,25.1,22.6,30.53,SSE,164,0.0,0.0,90,0.00,,,0.00,Weather View 32 v70,2013-12-11 13:31:00,
2013-12-11 07:36:00,25.1,22.6,30.53,SSE,163,0.0,0.0,90,0.00,,,0.00,Weather View 32 v70,2013-12-11 13:36:00,
2013-12-11 07:41:00,25.2,22.4,30.53,SSE,163,0.0,0.0,89,0.00,,,0.00,Weather View 32 v70,2013-12-11 13:41:00,
2013-12-11 07:46:00,25.3,22.8,30.54,SSE,163,0.0,0.0,90,0.00,,,0.00,Weather View 32 v70,2013-12-11 13:46:00,
2013-12-11 07:51:00,25.3,22.5,30.54,SSE,164,0.0,0.0,89,0.00,,,0.00,Weather View 32 v70,2013-12-11 13:51:00,
2013-12-11 07:56:00,26.1,23.6,30.54,SSE,163,0.0,0.0,90,0.00,,,0.00,Weather View 32 v70,2013-12-11 13:56:00,
2013-12-11 08:01:00,25.9,23.1,30.55,SSE,163,0.0,5.0,89,0.00,,,0.00,Weather View 32 v70,2013-12-11 14:01:00,
2013-12-11 08:06:00,25.8,23.0,30.55,SSE,161,0.0,5.0,89,0.00,,,0.00,Weather View 32 v70,2013-12-11 14:06:00,
2013-12-11 08:11:00,26.0,23.2,30.55,SSE,161,0.0,5.0,89,0.00,,,0.00,Weather View 32 v70,2013-12-11 14:11:00,
2013-12-11 08:16:00,26.2,23.1,30.56,SSE,161,0.0,5.0,88,0.00,,,0.00,Weather View 32 v70,2013-12-11 14:16:00,
2013-12-11 08:21:00,26.2,23.1,30.56,SSE,161,0.0,5.0,88,0.00,,,0.00,Weather View 32 v70,2013-12-11 14:21:00,
2013-12-11 08:26:00,26.2,22.9,30.56,SSE,161,0.0,5.0,87,0.00,,,0.00,Weather View 32 v70,2013-12-11 14:26:00,
2013-12-11 08:31:00,26.4,23.1,30.56,SSE,161,0.0,5.0,87,0.00,,,0.00,Weather View 32 v70,2013-12-11 14:31:00,
2013-12-11 08:36:00,26.5,22.9,30.56,SSE,161,1.0,5.0,86,0.00,,,0.00,Weather View 32 v70,2013-12-11 14:36:00,
2013-12-11 08:41:00,26.6,23.0,30.57,SSE,161,0.0,5.0,86,0.00,,,0.00,Weather View 32 v70,2013-12-11 14:41:00,
2013-12-11 08:46:00,26.7,22.8,30.57,SSE,161,0.0,5.0,85,0.00,,,0.00,Weather View 32 v70,2013-12-11 14:46:00,
2013-12-11 08:51:00,26.9,23.0,30.57,SSE,161,0.0,5.0,85,0.00,,,0.00,Weather View 32 v70,2013-12-11 14:51:00,
2013-12-11 08:56:00,27.1,23.2,30.58,SSE,161,0.0,5.0,85,0.00,,,0.00,Weather View 32 v70,2013-12-11 14:56:00,
2013-12-11 09:01:00,27.2,23.0,30.58,SSE,161,0.0,5.0,84,0.00,,,0.00,Weather View 32 v70,2013-12-11 15:01:00,
2013-12-11 09:06:00,27.4,23.2,30.59,NNE,15,5.0,6.0,84,0.00,,,0.00,Weather View 32 v70,2013-12-11 15:06:00,
2013-12-11 09:11:00,27.7,23.2,30.59,North,10,0.0,6.0,83,0.00,,,0.00,Weather View 32 v70,2013-12-11 15:11:00,
2013-12-11 09:16:00,27.8,23.0,30.59,North,354,4.0,7.0,82,0.00,,,0.00,Weather View 32 v70,2013-12-11 15:16:00,
2013-12-11 09:21:00,28.0,23.2,30.60,North,354,8.0,8.0,82,0.00,,,0.00,Weather View 32 v70,2013-12-11 15:21:00,
2013-12-11 09:26:00,28.2,23.1,30.60,North,354,7.0,9.0,81,0.00,,,0.00,Weather View 32 v70,2013-12-11 15:26:00,
2013-12-11 09:31:00,28.5,23.4,30.60,NNW,347,6.0,9.0,81,0.00,,,0.00,Weather View 32 v70,2013-12-11 15:31:00,
2013-12-11 09:36:00,28.8,23.1,30.61,North,354,9.0,12.0,79,0.00,,,0.00,Weather View 32 v70,2013-12-11 15:36:00,
2013-12-11 09:41:00,29.0,23.3,30.61,NNW,345,10.0,12.0,79,0.00,,,0.00,Weather View 32 v70,2013-12-11 15:41:00,
2013-12-11 09:46:00,29.0,23.0,30.62,NNW,338,5.0,14.0,78,0.00,,,0.00,Weather View 32 v70,2013-12-11 15:46:00,
2013-12-11 09:51:00,29.2,23.2,30.62,North,359,4.0,14.0,78,0.00,,,0.00,Weather View 32 v70,2013-12-11 15:51:00,
2013-12-11 09:56:00,29.4,23.1,30.62,North,9,7.0,14.0,77,0.00,,,0.00,Weather View 32 v70,2013-12-11 15:56:00,
2013-12-11 10:01:00,29.9,23.9,30.62,North,350,9.0,14.0,78,0.00,,,0.00,Weather View 32 v70,2013-12-11 16:01:00,
2013-12-11 10:06:00,30.4,23.4,30.62,North,4,8.0,14.0,75,0.00,,,0.00,Weather View 32 v70,2013-12-11 16:06:00,
2013-12-11 10:11:00,30.6,23.3,30.63,NNE,24,7.0,15.0,74,0.00,,,0.00,Weather View 32 v70,2013-12-11 16:11:00,
2013-12-11 10:16:00,30.9,23.3,30.63,North,10,9.0,15.0,73,0.00,,,0.00,Weather View 32 v70,2013-12-11 16:16:00,
2013-12-11 10:21:00,31.0,23.4,30.63,NNE,30,9.0,15.0,73,0.00,,,0.00,Weather View 32 v70,2013-12-11 16:21:00,
2013-12-11 10:26:00,31.2,23.6,30.63,North,4,7.0,15.0,73,0.00,,,0.00,Weather View 32 v70,2013-12-11 16:26:00,
2013-12-11 10:31:00,31.5,23.8,30.63,NNE,25,4.0,15.0,73,0.00,,,0.00,Weather View 32 v70,2013-12-11 16:31:00,
2013-12-11 10:36:00,31.8,23.8,30.63,NE,34,4.0,15.0,72,0.00,,,0.00,Weather View 32 v70,2013-12-11 16:36:00,
2013-12-11 10:41:00,32.0,24.0,30.63,North,354,5.0,15.0,72,0.00,,,0.00,Weather View 32 v70,2013-12-11 16:41:00,
2013-12-11 10:46:00,32.5,24.5,30.63,North,4,10.0,15.0,72,0.00,,,0.00,Weather View 32 v70,2013-12-11 16:46:00,
2013-12-11 10:51:00,32.8,24.8,30.64,NNE,14,0.0,15.0,72,0.00,,,0.00,Weather View 32 v70,2013-12-11 16:51:00,
2013-12-11 10:56:00,33.3,24.9,30.64,North,359,2.0,15.0,71,0.00,,,0.00,Weather View 32 v70,2013-12-11 16:56:00,
2013-12-11 11:01:00,33.8,25.0,30.64,NNE,16,7.0,15.0,70,0.00,,,0.00,Weather View 32 v70,2013-12-11 17:01:00,
2013-12-11 11:06:00,34.0,25.2,30.64,North,11,10.0,15.0,70,0.00,,,0.00,Weather View 32 v70,2013-12-11 17:06:00,
2013-12-11 11:11:00,34.1,25.0,30.64,NNE,22,6.0,15.0,69,0.00,,,0.00,Weather View 32 v70,2013-12-11 17:11:00,
2013-12-11 11:16:00,34.4,25.6,30.64,NNE,16,12.0,15.0,70,0.00,,,0.00,Weather View 32 v70,2013-12-11 17:16:00,
2013-12-11 11:21:00,34.5,25.7,30.64,North,359,5.0,15.0,70,0.00,,,0.00,Weather View 32 v70,2013-12-11 17:21:00,
2013-12-11 11:26:00,34.6,25.8,30.63,NNE,12,7.0,15.0,70,0.00,,,0.00,Weather View 32 v70,2013-12-11 17:26:00,
2013-12-11 11:31:00,34.5,25.7,30.64,NNE,12,8.0,15.0,70,0.00,,,0.00,Weather View 32 v70,2013-12-11 17:31:00,
2013-12-11 11:36:00,34.6,26.2,30.64,North,359,10.0,18.0,71,0.00,,,0.00,Weather View 32 v70,2013-12-11 17:36:00,
2013-12-11 11:41:00,35.0,26.5,30.63,NNE,13,7.0,18.0,71,0.00,,,0.00,Weather View 32 v70,2013-12-11 17:41:00,
2013-12-11 11:46:00,35.1,26.6,30.63,NE,54,7.0,18.0,71,0.00,,,0.00,Weather View 32 v70,2013-12-11 17:46:00,
2013-12-11 11:51:00,35.4,27.3,30.63,North,9,5.0,18.0,72,0.00,,,0.00,Weather View 32 v70,2013-12-11 17:51:00,
2013-12-11 11:56:00,35.6,27.1,30.63,NNE,15,10.0,18.0,71,0.00,,,0.00,Weather View 32 v70,2013-12-11 17:56:00,
2013-12-11 12:01:00,35.8,27.3,30.63,NNE,27,6.0,18.0,71,0.00,,,0.00,Weather View 32 v70,2013-12-11 18:01:00,
2013-12-11 12:06:00,36.0,27.5,30.62,North,11,8.0,18.0,71,0.00,,,0.00,Weather View 32 v70,2013-12-11 18:06:00,
2013-12-11 12:11:00,36.0,27.5,30.62,NNE,25,5.0,18.0,71,0.00,,,0.00,Weather View 32 v70,2013-12-11 18:11:00,
2013-12-11 12:16:00,36.3,27.4,30.63,NE,37,2.0,18.0,70,0.00,,,0.00,Weather View 32 v70,2013-12-11 18:16:00,
2013-12-11 12:21:00,36.5,27.6,30.62,ENE,62,9.0,18.0,70,0.00,,,0.00,Weather View 32 v70,2013-12-11 18:21:00,
2013-12-11 12:26:00,36.4,27.5,30.62,North,359,8.0,18.0,70,0.00,,,0.00,Weather View 32 v70,2013-12-11 18:26:00,
2013-12-11 12:31:00,36.6,28.1,30.62,NNE,12,2.0,18.0,71,0.00,,,0.00,Weather View 32 v70,2013-12-11 18:31:00,
2013-12-11 12:36:00,36.5,27.6,30.62,North,354,10.0,15.0,70,0.00,,,0.00,Weather View 32 v70,2013-12-11 18:36:00,
2013-12-11 12:41:00,36.4,27.5,30.62,NNE,31,7.0,15.0,70,0.00,,,0.00,Weather View 32 v70,2013-12-11 18:41:00,
2013-12-11 12:46:00,36.3,27.1,30.62,North,9,6.0,18.0,69,0.00,,,0.00,Weather View 32 v70,2013-12-11 18:46:00,
2013-12-11 12:51:00,36.2,27.0,30.62,NNE,19,6.0,18.0,69,0.00,,,0.00,Weather View 32 v70,2013-12-11 18:51:00,
2013-12-11 12:56:00,36.5,26.9,30.62,NNW,348,14.0,18.0,68,0.00,,,0.00,Weather View 32 v70,2013-12-11 18:56:00,
2013-12-11 13:01:00,36.5,26.2,30.62,North,354,10.0,18.0,66,0.00,,,0.00,Weather View 32 v70,2013-12-11 19:01:00,
2013-12-11 13:06:00,36.7,26.4,30.62,North,359,12.0,18.0,66,0.00,,,0.00,Weather View 32 v70,2013-12-11 19:06:00,
2013-12-11 13:11:00,36.8,26.1,30.62,North,354,12.0,18.0,65,0.00,,,0.00,Weather View 32 v70,2013-12-11 19:11:00,
2013-12-11 13:16:00,36.8,25.8,30.63,North,4,8.0,18.0,64,0.00,,,0.00,Weather View 32 v70,2013-12-11 19:16:00,
2013-12-11 13:21:00,36.9,25.5,30.63,North,354,9.0,18.0,63,0.00,,,0.00,Weather View 32 v70,2013-12-11 19:21:00,
2013-12-11 13:26:00,36.8,25.0,30.62,North,4,9.0,18.0,62,0.00,,,0.00,Weather View 32 v70,2013-12-11 19:26:00,
2013-12-11 13:31:00,36.8,25.4,30.62,North,9,7.0,18.0,63,0.00,,,0.00,Weather View 32 v70,2013-12-11 19:31:00,
2013-12-11 13:36:00,36.9,24.7,30.63,NNE,31,12.0,18.0,61,0.00,,,0.00,Weather View 32 v70,2013-12-11 19:36:00,
2013-12-11 13:41:00,37.0,24.8,30.62,NE,37,7.0,18.0,61,0.00,,,0.00,Weather View 32 v70,2013-12-11 19:41:00,
2013-12-11 13:46:00,37.2,25.4,30.63,NNE,12,14.0,18.0,62,0.00,,,0.00,Weather View 32 v70,2013-12-11 19:46:00,
2013-12-11 13:51:00,37.7,26.2,30.63,North,359,6.0,18.0,63,0.00,,,0.00,Weather View 32 v70,2013-12-11 19:51:00,
2013-12-11 13:56:00,37.5,25.7,30.63,North,350,6.0,18.0,62,0.00,,,0.00,Weather View 32 v70,2013-12-11 19:56:00,
2013-12-11 14:01:00,37.5,26.0,30.63,North,354,11.0,18.0,63,0.00,,,0.00,Weather View 32 v70,2013-12-11 20:01:00,
2013-12-11 14:06:00,37.5,26.0,30.63,North,4,7.0,18.0,63,0.00,,,0.00,Weather View 32 v70,2013-12-11 20:06:00,
2013-12-11 14:11:00,37.4,25.9,30.63,North,354,10.0,18.0,63,0.00,,,0.00,Weather View 32 v70,2013-12-11 20:11:00,
2013-12-11 14:16:00,37.4,25.9,30.63,North,8,11.0,18.0,63,0.00,,,0.00,Weather View 32 v70,2013-12-11 20:16:00,
2013-12-11 14:21:00,37.3,25.5,30.63,NNE,24,8.0,18.0,62,0.00,,,0.00,Weather View 32 v70,2013-12-11 20:21:00,
2013-12-11 14:26:00,37.6,26.1,30.63,North,350,0.0,18.0,63,0.00,,,0.00,Weather View 32 v70,2013-12-11 20:26:00,
2013-12-11 14:31:00,37.8,26.3,30.63,NNE,12,11.0,18.0,63,0.00,,,0.00,Weather View 32 v70,2013-12-11 20:31:00,
2013-12-11 14:36:00,37.4,25.6,30.63,North,354,6.0,16.0,62,0.00,,,0.00,Weather View 32 v70,2013-12-11 20:36:00,
2013-12-11 14:41:00,37.4,25.6,30.63,North,359,9.0,16.0,62,0.00,,,0.00,Weather View 32 v70,2013-12-11 20:41:00,
2013-12-11 14:46:00,37.5,25.3,30.64,North,359,6.0,16.0,61,0.00,,,0.00,Weather View 32 v70,2013-12-11 20:46:00,
2013-12-11 14:51:00,37.5,25.3,30.64,NNE,19,8.0,16.0,61,0.00,,,0.00,Weather View 32 v70,2013-12-11 20:51:00,
2013-12-11 14:56:00,37.8,25.1,30.64,NNE,18,9.0,16.0,60,0.00,,,0.00,Weather View 32 v70,2013-12-11 20:56:00,
2013-12-11 15:01:00,37.9,24.8,30.63,NNE,14,8.0,16.0,59,0.00,,,0.00,Weather View 32 v70,2013-12-11 21:01:00,
2013-12-11 15:06:00,37.9,25.2,30.64,North,354,7.0,16.0,60,0.00,,,0.00,Weather View 32 v70,2013-12-11 21:06:00,
2013-12-11 15:11:00,37.8,25.1,30.64,North,349,8.0,15.0,60,0.00,,,0.00,Weather View 32 v70,2013-12-11 21:11:00,
2013-12-11 15:16:00,37.7,25.4,30.64,North,4,7.0,15.0,61,0.00,,,0.00,Weather View 32 v70,2013-12-11 21:16:00,
2013-12-11 15:21:00,37.6,25.7,30.64,NNW,345,5.0,15.0,62,0.00,,,0.00,Weather View 32 v70,2013-12-11 21:21:00,
2013-12-11 15:26:00,37.5,25.7,30.64,North,359,9.0,15.0,62,0.00,,,0.00,Weather View 32 v70,2013-12-11 21:26:00,
2013-12-11 15:31:00,37.6,25.7,30.64,NNE,12,4.0,15.0,62,0.00,,,0.00,Weather View 32 v70,2013-12-11 21:31:00,
2013-12-11 15:36:00,37.5,25.3,30.64,NNE,12,5.0,14.0,61,0.00,,,0.00,Weather View 32 v70,2013-12-11 21:36:00,
2013-12-11 15:41:00,37.7,25.8,30.64,North,354,6.0,14.0,62,0.00,,,0.00,Weather View 32 v70,2013-12-11 21:41:00,
2013-12-11 15:46:00,37.6,25.4,30.64,North,10,7.0,13.0,61,0.00,,,0.00,Weather View 32 v70,2013-12-11 21:46:00,
2013-12-11 15:51:00,37.5,25.3,30.65,North,4,6.0,13.0,61,0.00,,,0.00,Weather View 32 v70,2013-12-11 21:51:00,
2013-12-11 15:56:00,37.5,25.3,30.65,North,354,6.0,13.0,61,0.00,,,0.00,Weather View 32 v70,2013-12-11 21:56:00,
2013-12-11 16:01:00,37.3,25.1,30.65,NNW,334,1.0,13.0,61,0.00,,,0.00,Weather View 32 v70,2013-12-11 22:01:00,
2013-12-11 16:06:00,37.3,25.1,30.65,North,359,5.0,13.0,61,0.00,,,0.00,Weather View 32 v70,2013-12-11 22:06:00,
2013-12-11 16:11:00,37.2,25.0,30.65,NNW,342,7.0,13.0,61,0.00,,,0.00,Weather View 32 v70,2013-12-11 22:11:00,
2013-12-11 16:16:00,37.1,24.9,30.65,NNE,17,7.0,13.0,61,0.00,,,0.00,Weather View 32 v70,2013-12-11 22:16:00,
2013-12-11 16:21:00,37.0,24.4,30.65,North,4,6.0,13.0,60,0.00,,,0.00,Weather View 32 v70,2013-12-11 22:21:00,
2013-12-11 16:26:00,37.0,24.8,30.65,North,359,5.0,13.0,61,0.00,,,0.00,Weather View 32 v70,2013-12-11 22:26:00,
2013-12-11 16:31:00,36.9,23.9,30.65,NNE,23,8.0,13.0,59,0.00,,,0.00,Weather View 32 v70,2013-12-11 22:31:00,
2013-12-11 16:36:00,36.8,23.8,30.65,NNE,28,7.0,13.0,59,0.00,,,0.00,Weather View 32 v70,2013-12-11 22:36:00,
2013-12-11 16:41:00,36.7,24.1,30.65,NNE,33,1.0,13.0,60,0.00,,,0.00,Weather View 32 v70,2013-12-11 22:41:00,
2013-12-11 16:46:00,36.5,23.5,30.65,NE,35,0.0,13.0,59,0.00,,,0.00,Weather View 32 v70,2013-12-11 22:46:00,
2013-12-11 16:51:00,36.4,23.4,30.65,NE,45,11.0,13.0,59,0.00,,,0.00,Weather View 32 v70,2013-12-11 22:51:00,
2013-12-11 16:56:00,36.2,23.6,30.65,NNE,14,0.0,13.0,60,0.00,,,0.00,Weather View 32 v70,2013-12-11 22:56:00,
2013-12-11 17:01:00,36.1,23.5,30.66,NNE,14,0.0,13.0,60,0.00,,,0.00,Weather View 32 v70,2013-12-11 23:01:00,
2013-12-11 17:06:00,36.0,23.0,30.66,NNE,16,0.0,13.0,59,0.00,,,0.00,Weather View 32 v70,2013-12-11 23:06:00,
2013-12-11 17:11:00,35.9,23.4,30.66,NNE,16,0.0,11.0,60,0.00,,,0.00,Weather View 32 v70,2013-12-11 23:11:00,
2013-12-11 17:16:00,35.7,23.2,30.66,NNE,16,0.0,11.0,60,0.00,,,0.00,Weather View 32 v70,2013-12-11 23:16:00,
2013-12-11 17:21:00,35.6,23.1,30.66,NNE,16,0.0,11.0,60,0.00,,,0.00,Weather View 32 v70,2013-12-11 23:21:00,
2013-12-11 17:26:00,35.5,23.0,30.66,NNE,16,0.0,11.0,60,0.00,,,0.00,Weather View 32 v70,2013-12-11 23:26:00,
2013-12-11 17:31:00,35.5,23.4,30.67,NNE,16,0.0,11.0,61,0.00,,,0.00,Weather View 32 v70,2013-12-11 23:31:00,
2013-12-11 17:36:00,35.4,23.3,30.66,NNE,16,0.0,11.0,61,0.00,,,0.00,Weather View 32 v70,2013-12-11 23:36:00,
2013-12-11 17:41:00,35.3,23.2,30.66,NNE,16,0.0,11.0,61,0.00,,,0.00,Weather View 32 v70,2013-12-11 23:41:00,
2013-12-11 17:46:00,35.2,23.1,30.66,NNE,16,0.0,11.0,61,0.00,,,0.00,Weather View 32 v70,2013-12-11 23:46:00,
2013-12-11 17:51:00,35.1,23.0,30.67,NNE,16,0.0,11.0,61,0.00,,,0.00,Weather View 32 v70,2013-12-11 23:51:00,
2013-12-11 17:56:00,35.0,22.9,30.67,NNE,15,0.0,2.0,61,0.00,,,0.00,Weather View 32 v70,2013-12-11 23:56:00,
2013-12-11 18:01:00,34.9,23.2,30.67,NNE,16,0.0,2.0,62,0.00,,,0.00,Weather View 32 v70,2013-12-12 00:01:00,
2013-12-11 18:06:00,34.9,23.2,30.67,NNE,15,0.0,2.0,62,0.00,,,0.00,Weather View 32 v70,2013-12-12 00:06:00,
2013-12-11 18:11:00,34.8,23.5,30.67,NNE,15,0.0,1.0,63,0.00,,,0.00,Weather View 32 v70,2013-12-12 00:11:00,
2013-12-11 18:16:00,34.7,23.4,30.67,NNE,16,0.0,0.0,63,0.00,,,0.00,Weather View 32 v70,2013-12-12 00:16:00,
2013-12-11 18:21:00,34.6,23.3,30.67,NNE,16,0.0,0.0,63,0.00,,,0.00,Weather View 32 v70,2013-12-12 00:21:00,
2013-12-11 18:26:00,34.6,23.3,30.68,NNE,16,0.0,0.0,63,0.00,,,0.00,Weather View 32 v70,2013-12-12 00:26:00,
2013-12-11 18:31:00,34.5,23.2,30.68,NNE,16,0.0,0.0,63,0.00,,,0.00,Weather View 32 v70,2013-12-12 00:31:00,
2013-12-11 18:36:00,34.4,23.5,30.68,NNE,16,0.0,0.0,64,0.00,,,0.00,Weather View 32 v70,2013-12-12 00:36:00,
2013-12-11 18:41:00,34.2,23.3,30.68,NNE,16,0.0,0.0,64,0.00,,,0.00,Weather View 32 v70,2013-12-12 00:41:00,
2013-12-11 18:46:00,34.1,23.2,30.68,NNE,16,0.0,0.0,64,0.00,,,0.00,Weather View 32 v70,2013-12-12 00:46:00,
2013-12-11 18:51:00,33.9,23.4,30.69,NNE,15,0.0,0.0,65,0.00,,,0.00,Weather View 32 v70,2013-12-12 00:51:00,
2013-12-11 18:56:00,33.8,23.3,30.69,NNE,15,0.0,0.0,65,0.00,,,0.00,Weather View 32 v70,2013-12-12 00:56:00,
2013-12-11 19:01:00,33.7,23.2,30.69,NNE,15,0.0,0.0,65,0.00,,,0.00,Weather View 32 v70,2013-12-12 01:01:00,
2013-12-11 19:06:00,33.6,23.1,30.69,NNE,16,0.0,0.0,65,0.00,,,0.00,Weather View 32 v70,2013-12-12 01:06:00,
2013-12-11 19:11:00,33.4,22.9,30.69,NNE,15,0.0,0.0,65,0.00,,,0.00,Weather View 32 v70,2013-12-12 01:11:00,
2013-12-11 19:16:00,33.2,22.7,30.69,NNE,16,0.0,0.0,65,0.00,,,0.00,Weather View 32 v70,2013-12-12 01:16:00,
2013-12-11 19:21:00,33.1,22.6,30.70,NNE,16,0.0,0.0,65,0.00,,,0.00,Weather View 32 v70,2013-12-12 01:21:00,
2013-12-11 19:26:00,32.9,22.8,30.70,NNE,16,0.0,0.0,66,0.00,,,0.00,Weather View 32 v70,2013-12-12 01:26:00,
2013-12-11 19:31:00,32.8,22.7,30.70,NNE,15,0.0,0.0,66,0.00,,,0.00,Weather View 32 v70,2013-12-12 01:31:00,
2013-12-11 19:36:00,32.6,22.5,30.69,NNE,15,0.0,0.0,66,0.00,,,0.00,Weather View 32 v70,2013-12-12 01:36:00,
2013-12-11 19:41:00,32.4,22.3,30.70,NNE,15,0.0,0.0,66,0.00,,,0.00,Weather View 32 v70,2013-12-12 01:41:00,
2013-12-11 19:46:00,32.4,22.3,30.70,NNE,16,0.0,0.0,66,0.00,,,0.00,Weather View 32 v70,2013-12-12 01:46:00,
2013-12-11 19:51:00,32.3,22.2,30.70,NNE,16,0.0,0.0,66,0.00,,,0.00,Weather View 32 v70,2013-12-12 01:51:00,
2013-12-11 19:56:00,32.3,22.2,30.70,NNE,16,0.0,0.0,66,0.00,,,0.00,Weather View 32 v70,2013-12-12 01:56:00,
2013-12-11 20:01:00,32.2,22.1,30.70,NNE,15,0.0,0.0,66,0.00,,,0.00,Weather View 32 v70,2013-12-12 02:01:00,
2013-12-11 20:06:00,32.1,21.7,30.70,NNE,15,0.0,0.0,65,0.00,,,0.00,Weather View 32 v70,2013-12-12 02:06:00,
2013-12-11 20:11:00,31.9,21.5,30.70,NNE,16,0.0,0.0,65,0.00,,,0.00,Weather View 32 v70,2013-12-12 02:11:00,
2013-12-11 20:16:00,31.8,21.0,30.70,NNE,16,0.0,0.0,64,0.00,,,0.00,Weather View 32 v70,2013-12-12 02:16:00,
2013-12-11 20:21:00,31.6,20.8,30.70,NNE,16,0.0,0.0,64,0.00,,,0.00,Weather View 32 v70,2013-12-12 02:21:00,
2013-12-11 20:26:00,31.5,20.7,30.70,NNE,15,0.0,0.0,64,0.00,,,0.00,Weather View 32 v70,2013-12-12 02:26:00,
2013-12-11 20:31:00,31.3,20.5,30.70,NNE,16,0.0,0.0,64,0.00,,,0.00,Weather View 32 v70,2013-12-12 02:31:00,
2013-12-11 20:36:00,31.2,20.4,30.71,NNE,16,0.0,0.0,64,0.00,,,0.00,Weather View 32 v70,2013-12-12 02:36:00,
2013-12-11 20:41:00,31.2,20.8,30.71,NNE,16,0.0,0.0,65,0.00,,,0.00,Weather View 32 v70,2013-12-12 02:41:00,
2013-12-11 20:46:00,31.1,20.7,30.71,NNE,16,0.0,0.0,65,0.00,,,0.00,Weather View 32 v70,2013-12-12 02:46:00,
2013-12-11 20:51:00,31.1,20.7,30.71,NNE,16,0.0,0.0,65,0.00,,,0.00,Weather View 32 v70,2013-12-12 02:51:00,
2013-12-11 20:56:00,31.0,20.6,30.70,NNE,16,0.0,0.0,65,0.00,,,0.00,Weather View 32 v70,2013-12-12 02:56:00,
2013-12-11 21:01:00,30.9,20.5,30.70,NNE,16,0.0,0.0,65,0.00,,,0.00,Weather View 32 v70,2013-12-12 03:01:00,
2013-12-11 21:06:00,30.8,20.4,30.70,NNE,16,0.0,0.0,65,0.00,,,0.00,Weather View 32 v70,2013-12-12 03:06:00,
2013-12-11 21:11:00,30.8,20.4,30.70,NNE,15,0.0,0.0,65,0.00,,,0.00,Weather View 32 v70,2013-12-12 03:11:00,
2013-12-11 21:16:00,30.7,20.3,30.70,NNE,16,0.0,0.0,65,0.00,,,0.00,Weather View 32 v70,2013-12-12 03:16:00,
2013-12-11 21:21:00,30.6,20.6,30.71,NNE,16,0.0,0.0,66,0.00,,,0.00,Weather View 32 v70,2013-12-12 03:21:00,
2013-12-11 21:26:00,30.5,20.5,30.70,NNE,16,0.0,0.0,66,0.00,,,0.00,Weather View 32 v70,2013-12-12 03:26:00,
2013-12-11 21:31:00,30.3,20.7,30.70,NNE,15,0.0,0.0,67,0.00,,,0.00,Weather View 32 v70,2013-12-12 03:31:00,
2013-12-11 21:36:00,30.2,20.6,30.70,NNE,16,0.0,0.0,67,0.00,,,0.00,Weather View 32 v70,2013-12-12 03:36:00,
2013-12-11 21:41:00,29.9,20.6,30.70,NNE,16,0.0,0.0,68,0.00,,,0.00,Weather View 32 v70,2013-12-12 03:41:00,
2013-12-11 21:46:00,29.6,20.7,30.71,NNE,16,0.0,0.0,69,0.00,,,0.00,Weather View 32 v70,2013-12-12 03:46:00,
2013-12-11 21:51:00,29.2,20.6,30.70,NNE,16,0.0,0.0,70,0.00,,,0.00,Weather View 32 v70,2013-12-12 03:51:00,
2013-12-11 21:56:00,28.9,20.3,30.70,NNE,16,0.0,0.0,70,0.00,,,0.00,Weather View 32 v70,2013-12-12 03:56:00,
2013-12-11 22:01:00,28.7,20.5,30.70,NNE,16,0.0,0.0,71,0.00,,,0.00,Weather View 32 v70,2013-12-12 04:01:00,
2013-12-11 22:06:00,28.6,20.4,30.70,NNE,15,0.0,0.0,71,0.00,,,0.00,Weather View 32 v70,2013-12-12 04:06:00,
2013-12-11 22:11:00,28.5,20.6,30.71,NNE,16,0.0,0.0,72,0.00,,,0.00,Weather View 32 v70,2013-12-12 04:11:00,
2013-12-11 22:16:00,28.4,20.5,30.70,NNE,16,0.0,0.0,72,0.00,,,0.00,Weather View 32 v70,2013-12-12 04:16:00,
2013-12-11 22:21:00,28.4,20.2,30.70,NNE,15,0.0,0.0,71,0.00,,,0.00,Weather View 32 v70,2013-12-12 04:21:00,
2013-12-11 22:26:00,28.4,20.5,30.70,NNE,16,0.0,0.0,72,0.00,,,0.00,Weather View 32 v70,2013-12-12 04:26:00,
2013-12-11 22:31:00,28.5,20.3,30.71,NNE,15,0.0,0.0,71,0.00,,,0.00,Weather View 32 v70,2013-12-12 04:31:00,
2013-12-11 22:36:00,28.5,20.3,30.70,NNE,16,0.0,0.0,71,0.00,,,0.00,Weather View 32 v70,2013-12-12 04:36:00,
2013-12-11 22:41:00,28.4,20.2,30.71,NNE,15,0.0,0.0,71,0.00,,,0.00,Weather View 32 v70,2013-12-12 04:41:00,
2013-12-11 22:46:00,28.3,20.1,30.71,NNE,16,0.0,0.0,71,0.00,,,0.00,Weather View 32 v70,2013-12-12 04:46:00,
2013-12-11 22:51:00,28.2,20.0,30.71,NNE,15,0.0,0.0,71,0.00,,,0.00,Weather View 32 v70,2013-12-12 04:51:00,
2013-12-11 22:56:00,28.1,19.9,30.71,NNE,16,0.0,0.0,71,0.00,,,0.00,Weather View 32 v70,2013-12-12 04:56:00,
2013-12-11 23:01:00,28.0,19.8,30.71,NNE,16,0.0,0.0,71,0.00,,,0.00,Weather View 32 v70,2013-12-12 05:01:00,
2013-12-11 23:06:00,27.9,19.4,30.71,NNE,16,0.0,0.0,70,0.00,,,0.00,Weather View 32 v70,2013-12-12 05:06:00,
2013-12-11 23:11:00,27.8,19.6,30.71,NNE,16,0.0,0.0,71,0.00,,,0.00,Weather View 32 v70,2013-12-12 05:11:00,
2013-12-11 23:16:00,27.7,19.5,30.71,NNE,16,0.0,0.0,71,0.00,,,0.00,Weather View 32 v70,2013-12-12 05:16:00,
2013-12-11 23:21:00,27.6,19.4,30.71,NNE,16,0.0,0.0,71,0.00,,,0.00,Weather View 32 v70,2013-12-12 05:21:00,
2013-12-11 23:26:00,27.5,19.0,30.71,NNE,15,0.0,0.0,70,0.00,,,0.00,Weather View 32 v70,2013-12-12 05:26:00,
2013-12-11 23:31:00,27.4,18.9,30.71,NNE,16,0.0,0.0,70,0.00,,,0.00,Weather View 32 v70,2013-12-12 05:31:00,
2013-12-11 23:36:00,27.4,19.2,30.71,NNE,16,0.0,0.0,71,0.00,,,0.00,Weather View 32 v70,2013-12-12 05:36:00,
2013-12-11 23:41:00,27.3,19.1,30.71,NNE,16,0.0,0.0,71,0.00,,,0.00,Weather View 32 v70,2013-12-12 05:41:00,
2013-12-11 23:46:00,27.4,19.2,30.71,NNE,16,0.0,0.0,71,0.00,,,0.00,Weather View 32 v70,2013-12-12 05:46:00,
2013-12-11 23:51:00,27.3,19.1,30.71,NNE,15,0.0,0.0,71,0.00,,,0.00,Weather View 32 v70,2013-12-12 05:51:00,
2013-12-11 23:56:00,27.2,19.0,30.71,NNE,16,0.0,0.0,71,0.00,,,0.00,Weather View 32 v70,2013-12-12 05:56:00,